sensor_id;sensor_type;location;lat;lon;timestamp;P1;durP1;ratioP1;P2;durP2;ratioP2
19339;SDS011;9804;52.350;6.684;2024-01-10T00:00:07;4.73;;;2.27;;
19339;SDS011;9804;52.350;6.684;2024-01-10T00:02:33;4.20;;;2.43;;
19339;SDS011;9804;52.350;6.684;2024-01-10T00:04:59;4.57;;;1.60;;
19339;SDS011;9804;52.350;6.684;2024-01-10T00:07:24;4.00;;;1.80;;
19339;SDS011;9804;52.350;6.684;2024-01-10T00:09:50;5.77;;;2.10;;
19339;SDS011;9804;52.350;6.684;2024-01-10T00:12:15;5.20;;;2.37;;
19339;SDS011;9804;52.350;6.684;2024-01-10T00:14:41;4.87;;;2.10;;
19339;SDS011;9804;52.350;6.684;2024-01-10T00:17:06;6.97;;;2.50;;
19339;SDS011;9804;52.350;6.684;2024-01-10T00:19:32;5.20;;;2.40;;
19339;SDS011;9804;52.350;6.684;2024-01-10T00:21:58;4.93;;;2.20;;
19339;SDS011;9804;52.350;6.684;2024-01-10T00:24:23;10.53;;;2.13;;
19339;SDS011;9804;52.350;6.684;2024-01-10T00:26:48;7.00;;;2.30;;
19339;SDS011;9804;52.350;6.684;2024-01-10T00:29:14;2.67;;;1.83;;
19339;SDS011;9804;52.350;6.684;2024-01-10T00:31:40;6.37;;;2.47;;
19339;SDS011;9804;52.350;6.684;2024-01-10T00:34:05;6.13;;;2.47;;
19339;SDS011;9804;52.350;6.684;2024-01-10T00:36:31;6.10;;;2.27;;
19339;SDS011;9804;52.350;6.684;2024-01-10T00:38:56;5.53;;;2.93;;
19339;SDS011;9804;52.350;6.684;2024-01-10T00:41:22;9.17;;;2.57;;
19339;SDS011;9804;52.350;6.684;2024-01-10T00:43:47;5.93;;;2.27;;
19339;SDS011;9804;52.350;6.684;2024-01-10T00:46:13;4.53;;;2.30;;
19339;SDS011;9804;52.350;6.684;2024-01-10T00:48:38;6.17;;;2.57;;
19339;SDS011;9804;52.350;6.684;2024-01-10T00:51:03;6.63;;;2.40;;
19339;SDS011;9804;52.350;6.684;2024-01-10T00:53:33;5.97;;;2.60;;
19339;SDS011;9804;52.350;6.684;2024-01-10T00:55:59;5.63;;;2.67;;
19339;SDS011;9804;52.350;6.684;2024-01-10T00:58:25;6.53;;;2.30;;
19339;SDS011;9804;52.350;6.684;2024-01-10T01:00:50;6.00;;;2.13;;
19339;SDS011;9804;52.350;6.684;2024-01-10T01:03:15;5.33;;;2.33;;
19339;SDS011;9804;52.350;6.684;2024-01-10T01:05:41;4.63;;;2.20;;
19339;SDS011;9804;52.350;6.684;2024-01-10T01:08:06;5.40;;;2.37;;
19339;SDS011;9804;52.350;6.684;2024-01-10T01:10:32;7.37;;;2.90;;
19339;SDS011;9804;52.350;6.684;2024-01-10T01:12:58;7.13;;;2.40;;
19339;SDS011;9804;52.350;6.684;2024-01-10T01:15:24;7.67;;;2.37;;
19339;SDS011;9804;52.350;6.684;2024-01-10T01:17:49;5.87;;;2.23;;
19339;SDS011;9804;52.350;6.684;2024-01-10T01:20:14;4.90;;;2.50;;
19339;SDS011;9804;52.350;6.684;2024-01-10T01:22:41;5.43;;;2.23;;
19339;SDS011;9804;52.350;6.684;2024-01-10T01:25:07;5.90;;;2.30;;
19339;SDS011;9804;52.350;6.684;2024-01-10T01:27:33;3.97;;;2.20;;
19339;SDS011;9804;52.350;6.684;2024-01-10T01:29:59;4.83;;;2.60;;
19339;SDS011;9804;52.350;6.684;2024-01-10T01:32:24;7.13;;;2.60;;
19339;SDS011;9804;52.350;6.684;2024-01-10T01:34:50;6.63;;;2.50;;
19339;SDS011;9804;52.350;6.684;2024-01-10T01:37:15;5.27;;;2.40;;
19339;SDS011;9804;52.350;6.684;2024-01-10T01:39:40;7.00;;;2.57;;
19339;SDS011;9804;52.350;6.684;2024-01-10T01:42:06;7.07;;;3.17;;
19339;SDS011;9804;52.350;6.684;2024-01-10T01:44:31;7.07;;;2.50;;
19339;SDS011;9804;52.350;6.684;2024-01-10T01:46:57;3.63;;;2.07;;
19339;SDS011;9804;52.350;6.684;2024-01-10T01:49:23;6.27;;;2.47;;
19339;SDS011;9804;52.350;6.684;2024-01-10T01:51:50;6.47;;;2.40;;
19339;SDS011;9804;52.350;6.684;2024-01-10T01:54:16;5.50;;;2.70;;
19339;SDS011;9804;52.350;6.684;2024-01-10T01:56:42;6.20;;;2.77;;
19339;SDS011;9804;52.350;6.684;2024-01-10T01:59:09;5.60;;;2.70;;
19339;SDS011;9804;52.350;6.684;2024-01-10T02:01:36;5.27;;;2.23;;
19339;SDS011;9804;52.350;6.684;2024-01-10T02:04:01;7.93;;;2.90;;
19339;SDS011;9804;52.350;6.684;2024-01-10T02:06:28;7.10;;;2.63;;
19339;SDS011;9804;52.350;6.684;2024-01-10T02:08:54;6.27;;;2.80;;
19339;SDS011;9804;52.350;6.684;2024-01-10T02:11:21;8.27;;;2.93;;
19339;SDS011;9804;52.350;6.684;2024-01-10T02:13:46;6.13;;;2.60;;
19339;SDS011;9804;52.350;6.684;2024-01-10T02:16:12;4.90;;;2.43;;
19339;SDS011;9804;52.350;6.684;2024-01-10T02:18:38;8.23;;;2.87;;
19339;SDS011;9804;52.350;6.684;2024-01-10T02:21:03;7.87;;;2.70;;
19339;SDS011;9804;52.350;6.684;2024-01-10T02:23:29;5.97;;;2.60;;
19339;SDS011;9804;52.350;6.684;2024-01-10T02:25:54;6.23;;;2.47;;
19339;SDS011;9804;52.350;6.684;2024-01-10T02:28:20;3.93;;;1.93;;
19339;SDS011;9804;52.350;6.684;2024-01-10T02:30:45;8.67;;;2.63;;
19339;SDS011;9804;52.350;6.684;2024-01-10T02:33:12;6.23;;;2.77;;
19339;SDS011;9804;52.350;6.684;2024-01-10T02:35:37;5.87;;;2.20;;
19339;SDS011;9804;52.350;6.684;2024-01-10T02:38:03;6.27;;;2.80;;
19339;SDS011;9804;52.350;6.684;2024-01-10T02:40:29;4.83;;;2.23;;
19339;SDS011;9804;52.350;6.684;2024-01-10T02:42:54;4.03;;;2.60;;
19339;SDS011;9804;52.350;6.684;2024-01-10T02:45:20;5.37;;;2.80;;
19339;SDS011;9804;52.350;6.684;2024-01-10T02:47:45;5.07;;;2.37;;
19339;SDS011;9804;52.350;6.684;2024-01-10T02:50:11;7.63;;;2.87;;
19339;SDS011;9804;52.350;6.684;2024-01-10T02:52:36;6.03;;;2.60;;
19339;SDS011;9804;52.350;6.684;2024-01-10T02:55:02;6.67;;;2.77;;
19339;SDS011;9804;52.350;6.684;2024-01-10T02:57:27;6.43;;;2.70;;
19339;SDS011;9804;52.350;6.684;2024-01-10T02:59:53;4.87;;;2.30;;
19339;SDS011;9804;52.350;6.684;2024-01-10T03:02:18;6.30;;;2.77;;
19339;SDS011;9804;52.350;6.684;2024-01-10T03:04:43;6.60;;;3.03;;
19339;SDS011;9804;52.350;6.684;2024-01-10T03:07:12;7.27;;;2.67;;
19339;SDS011;9804;52.350;6.684;2024-01-10T03:09:37;7.53;;;2.53;;
19339;SDS011;9804;52.350;6.684;2024-01-10T03:12:02;6.70;;;2.83;;
19339;SDS011;9804;52.350;6.684;2024-01-10T03:14:28;8.20;;;2.83;;
19339;SDS011;9804;52.350;6.684;2024-01-10T03:16:53;5.50;;;2.60;;
19339;SDS011;9804;52.350;6.684;2024-01-10T03:19:19;6.67;;;2.53;;
19339;SDS011;9804;52.350;6.684;2024-01-10T03:21:44;7.13;;;3.10;;
19339;SDS011;9804;52.350;6.684;2024-01-10T03:24:10;6.53;;;2.57;;
19339;SDS011;9804;52.350;6.684;2024-01-10T03:26:35;5.63;;;2.80;;
19339;SDS011;9804;52.350;6.684;2024-01-10T03:29:01;7.10;;;2.93;;
19339;SDS011;9804;52.350;6.684;2024-01-10T03:31:27;6.43;;;2.60;;
19339;SDS011;9804;52.350;6.684;2024-01-10T03:33:54;6.53;;;2.50;;
19339;SDS011;9804;52.350;6.684;2024-01-10T03:36:19;5.10;;;2.27;;
19339;SDS011;9804;52.350;6.684;2024-01-10T03:38:45;6.33;;;2.90;;
19339;SDS011;9804;52.350;6.684;2024-01-10T03:41:13;6.67;;;2.60;;
19339;SDS011;9804;52.350;6.684;2024-01-10T03:43:39;8.87;;;2.80;;
19339;SDS011;9804;52.350;6.684;2024-01-10T03:46:05;8.50;;;3.47;;
19339;SDS011;9804;52.350;6.684;2024-01-10T03:48:30;6.20;;;2.80;;
19339;SDS011;9804;52.350;6.684;2024-01-10T03:50:56;5.57;;;2.53;;
19339;SDS011;9804;52.350;6.684;2024-01-10T03:53:21;5.37;;;2.93;;
19339;SDS011;9804;52.350;6.684;2024-01-10T03:55:47;6.97;;;2.40;;
19339;SDS011;9804;52.350;6.684;2024-01-10T03:58:12;6.43;;;2.90;;
19339;SDS011;9804;52.350;6.684;2024-01-10T04:00:38;7.33;;;3.03;;
19339;SDS011;9804;52.350;6.684;2024-01-10T04:03:03;6.87;;;2.50;;
19339;SDS011;9804;52.350;6.684;2024-01-10T04:05:29;5.33;;;2.53;;
19339;SDS011;9804;52.350;6.684;2024-01-10T04:07:54;5.53;;;2.57;;
19339;SDS011;9804;52.350;6.684;2024-01-10T04:10:22;9.37;;;3.07;;
19339;SDS011;9804;52.350;6.684;2024-01-10T04:12:47;7.47;;;3.30;;
19339;SDS011;9804;52.350;6.684;2024-01-10T04:15:13;10.67;;;3.60;;
19339;SDS011;9804;52.350;6.684;2024-01-10T04:17:38;7.77;;;2.93;;
19339;SDS011;9804;52.350;6.684;2024-01-10T04:20:04;6.13;;;2.90;;
19339;SDS011;9804;52.350;6.684;2024-01-10T04:22:30;8.17;;;3.37;;
19339;SDS011;9804;52.350;6.684;2024-01-10T04:24:59;7.83;;;2.87;;
19339;SDS011;9804;52.350;6.684;2024-01-10T04:27:26;6.90;;;3.17;;
19339;SDS011;9804;52.350;6.684;2024-01-10T04:29:52;6.93;;;3.13;;
19339;SDS011;9804;52.350;6.684;2024-01-10T04:32:18;12.73;;;3.30;;
19339;SDS011;9804;52.350;6.684;2024-01-10T04:34:43;6.00;;;2.80;;
19339;SDS011;9804;52.350;6.684;2024-01-10T04:37:09;7.13;;;3.03;;
19339;SDS011;9804;52.350;6.684;2024-01-10T04:39:34;6.87;;;2.80;;
19339;SDS011;9804;52.350;6.684;2024-01-10T04:42:00;10.60;;;2.90;;
19339;SDS011;9804;52.350;6.684;2024-01-10T04:44:26;7.63;;;3.20;;
19339;SDS011;9804;52.350;6.684;2024-01-10T04:46:52;6.77;;;3.50;;
19339;SDS011;9804;52.350;6.684;2024-01-10T04:49:17;8.63;;;3.43;;
19339;SDS011;9804;52.350;6.684;2024-01-10T04:51:43;5.90;;;2.70;;
19339;SDS011;9804;52.350;6.684;2024-01-10T04:54:08;10.17;;;3.70;;
19339;SDS011;9804;52.350;6.684;2024-01-10T04:56:34;8.27;;;3.13;;
19339;SDS011;9804;52.350;6.684;2024-01-10T04:59:04;7.30;;;3.60;;
19339;SDS011;9804;52.350;6.684;2024-01-10T05:01:29;9.30;;;3.53;;
19339;SDS011;9804;52.350;6.684;2024-01-10T05:03:55;8.47;;;3.77;;
19339;SDS011;9804;52.350;6.684;2024-01-10T05:06:20;11.27;;;3.93;;
19339;SDS011;9804;52.350;6.684;2024-01-10T05:08:46;10.23;;;3.77;;
19339;SDS011;9804;52.350;6.684;2024-01-10T05:11:11;8.97;;;3.53;;
19339;SDS011;9804;52.350;6.684;2024-01-10T05:13:38;8.37;;;3.80;;
19339;SDS011;9804;52.350;6.684;2024-01-10T05:16:05;8.00;;;3.47;;
19339;SDS011;9804;52.350;6.684;2024-01-10T05:18:30;8.17;;;3.50;;
19339;SDS011;9804;52.350;6.684;2024-01-10T05:20:56;8.30;;;3.57;;
19339;SDS011;9804;52.350;6.684;2024-01-10T05:23:22;8.83;;;3.63;;
19339;SDS011;9804;52.350;6.684;2024-01-10T05:25:48;9.40;;;4.00;;
19339;SDS011;9804;52.350;6.684;2024-01-10T05:28:13;7.37;;;3.27;;
19339;SDS011;9804;52.350;6.684;2024-01-10T05:30:39;10.30;;;4.03;;
19339;SDS011;9804;52.350;6.684;2024-01-10T05:33:04;10.57;;;3.87;;
19339;SDS011;9804;52.350;6.684;2024-01-10T05:35:30;9.83;;;3.70;;
19339;SDS011;9804;52.350;6.684;2024-01-10T05:37:55;12.23;;;4.00;;
19339;SDS011;9804;52.350;6.684;2024-01-10T05:40:21;11.77;;;4.30;;
19339;SDS011;9804;52.350;6.684;2024-01-10T05:42:46;9.07;;;3.70;;
19339;SDS011;9804;52.350;6.684;2024-01-10T05:45:12;10.60;;;3.57;;
19339;SDS011;9804;52.350;6.684;2024-01-10T05:47:37;10.40;;;4.30;;
19339;SDS011;9804;52.350;6.684;2024-01-10T05:50:03;8.37;;;3.60;;
19339;SDS011;9804;52.350;6.684;2024-01-10T05:52:31;12.53;;;4.93;;
19339;SDS011;9804;52.350;6.684;2024-01-10T05:54:58;11.37;;;4.10;;
19339;SDS011;9804;52.350;6.684;2024-01-10T05:57:24;10.83;;;4.00;;
19339;SDS011;9804;52.350;6.684;2024-01-10T05:59:49;8.20;;;3.90;;
19339;SDS011;9804;52.350;6.684;2024-01-10T06:02:17;9.73;;;3.57;;
19339;SDS011;9804;52.350;6.684;2024-01-10T06:04:43;11.53;;;4.57;;
19339;SDS011;9804;52.350;6.684;2024-01-10T06:07:08;8.63;;;4.00;;
19339;SDS011;9804;52.350;6.684;2024-01-10T06:09:33;8.80;;;4.30;;
19339;SDS011;9804;52.350;6.684;2024-01-10T06:11:59;10.10;;;4.10;;
19339;SDS011;9804;52.350;6.684;2024-01-10T06:14:24;8.07;;;3.60;;
19339;SDS011;9804;52.350;6.684;2024-01-10T06:16:49;9.63;;;3.47;;
19339;SDS011;9804;52.350;6.684;2024-01-10T06:19:15;9.33;;;3.77;;
19339;SDS011;9804;52.350;6.684;2024-01-10T06:21:40;11.00;;;4.07;;
19339;SDS011;9804;52.350;6.684;2024-01-10T06:24:07;8.50;;;3.67;;
19339;SDS011;9804;52.350;6.684;2024-01-10T06:26:33;7.83;;;3.87;;
19339;SDS011;9804;52.350;6.684;2024-01-10T06:28:58;7.87;;;3.90;;
19339;SDS011;9804;52.350;6.684;2024-01-10T06:31:24;7.27;;;3.13;;
19339;SDS011;9804;52.350;6.684;2024-01-10T06:33:49;8.27;;;3.60;;
19339;SDS011;9804;52.350;6.684;2024-01-10T06:36:14;10.10;;;4.03;;
19339;SDS011;9804;52.350;6.684;2024-01-10T06:38:40;9.50;;;3.47;;
19339;SDS011;9804;52.350;6.684;2024-01-10T06:41:09;9.63;;;3.80;;
19339;SDS011;9804;52.350;6.684;2024-01-10T06:43:35;11.17;;;3.70;;
19339;SDS011;9804;52.350;6.684;2024-01-10T06:46:01;9.80;;;3.90;;
19339;SDS011;9804;52.350;6.684;2024-01-10T06:48:28;8.90;;;3.90;;
19339;SDS011;9804;52.350;6.684;2024-01-10T06:50:54;9.53;;;4.03;;
19339;SDS011;9804;52.350;6.684;2024-01-10T06:53:20;9.83;;;4.17;;
19339;SDS011;9804;52.350;6.684;2024-01-10T06:55:46;9.13;;;3.70;;
19339;SDS011;9804;52.350;6.684;2024-01-10T06:58:12;9.47;;;3.40;;
19339;SDS011;9804;52.350;6.684;2024-01-10T07:00:37;8.30;;;3.57;;
19339;SDS011;9804;52.350;6.684;2024-01-10T07:03:03;7.27;;;3.37;;
19339;SDS011;9804;52.350;6.684;2024-01-10T07:05:29;10.70;;;4.07;;
19339;SDS011;9804;52.350;6.684;2024-01-10T07:07:56;11.93;;;3.67;;
19339;SDS011;9804;52.350;6.684;2024-01-10T07:10:22;10.27;;;4.30;;
19339;SDS011;9804;52.350;6.684;2024-01-10T07:12:52;7.90;;;3.07;;
19339;SDS011;9804;52.350;6.684;2024-01-10T07:15:18;8.93;;;4.07;;
19339;SDS011;9804;52.350;6.684;2024-01-10T07:17:43;9.00;;;3.50;;
19339;SDS011;9804;52.350;6.684;2024-01-10T07:20:09;11.83;;;3.50;;
19339;SDS011;9804;52.350;6.684;2024-01-10T07:22:37;9.03;;;3.77;;
19339;SDS011;9804;52.350;6.684;2024-01-10T07:25:12;9.40;;;4.17;;
19339;SDS011;9804;52.350;6.684;2024-01-10T07:27:42;8.60;;;3.57;;
19339;SDS011;9804;52.350;6.684;2024-01-10T07:30:10;8.97;;;3.77;;
19339;SDS011;9804;52.350;6.684;2024-01-10T07:32:42;8.03;;;3.27;;
19339;SDS011;9804;52.350;6.684;2024-01-10T07:35:08;9.70;;;3.97;;
19339;SDS011;9804;52.350;6.684;2024-01-10T07:37:37;12.07;;;3.57;;
19339;SDS011;9804;52.350;6.684;2024-01-10T07:40:04;9.13;;;3.90;;
19339;SDS011;9804;52.350;6.684;2024-01-10T07:42:31;5.73;;;3.17;;
19339;SDS011;9804;52.350;6.684;2024-01-10T07:45:01;11.70;;;4.00;;
19339;SDS011;9804;52.350;6.684;2024-01-10T07:47:36;9.63;;;3.80;;
19339;SDS011;9804;52.350;6.684;2024-01-10T07:50:06;7.57;;;3.23;;
19339;SDS011;9804;52.350;6.684;2024-01-10T07:52:33;7.10;;;2.97;;
19339;SDS011;9804;52.350;6.684;2024-01-10T07:54:59;8.03;;;3.60;;
19339;SDS011;9804;52.350;6.684;2024-01-10T07:57:25;11.20;;;3.53;;
19339;SDS011;9804;52.350;6.684;2024-01-10T07:59:52;8.43;;;3.90;;
19339;SDS011;9804;52.350;6.684;2024-01-10T08:02:17;11.47;;;3.63;;
19339;SDS011;9804;52.350;6.684;2024-01-10T08:04:43;9.83;;;3.87;;
19339;SDS011;9804;52.350;6.684;2024-01-10T08:07:08;8.40;;;2.80;;
19339;SDS011;9804;52.350;6.684;2024-01-10T08:09:34;9.70;;;3.57;;
19339;SDS011;9804;52.350;6.684;2024-01-10T08:12:01;12.40;;;3.67;;
19339;SDS011;9804;52.350;6.684;2024-01-10T08:14:27;9.97;;;3.87;;
19339;SDS011;9804;52.350;6.684;2024-01-10T08:16:53;9.47;;;3.90;;
19339;SDS011;9804;52.350;6.684;2024-01-10T08:19:19;9.03;;;3.77;;
19339;SDS011;9804;52.350;6.684;2024-01-10T08:21:45;6.23;;;3.07;;
19339;SDS011;9804;52.350;6.684;2024-01-10T08:24:10;9.77;;;3.77;;
19339;SDS011;9804;52.350;6.684;2024-01-10T08:26:36;6.90;;;3.23;;
19339;SDS011;9804;52.350;6.684;2024-01-10T08:29:03;12.87;;;3.80;;
19339;SDS011;9804;52.350;6.684;2024-01-10T08:31:28;8.53;;;3.63;;
19339;SDS011;9804;52.350;6.684;2024-01-10T08:33:54;8.63;;;4.17;;
19339;SDS011;9804;52.350;6.684;2024-01-10T08:36:19;9.70;;;4.13;;
19339;SDS011;9804;52.350;6.684;2024-01-10T08:38:45;9.13;;;4.20;;
19339;SDS011;9804;52.350;6.684;2024-01-10T08:41:11;10.43;;;3.80;;
19339;SDS011;9804;52.350;6.684;2024-01-10T08:43:37;10.03;;;4.13;;
19339;SDS011;9804;52.350;6.684;2024-01-10T08:46:03;11.93;;;4.37;;
19339;SDS011;9804;52.350;6.684;2024-01-10T08:48:29;7.93;;;3.80;;
19339;SDS011;9804;52.350;6.684;2024-01-10T08:50:54;11.67;;;3.83;;
19339;SDS011;9804;52.350;6.684;2024-01-10T08:53:21;10.93;;;3.77;;
19339;SDS011;9804;52.350;6.684;2024-01-10T08:55:47;9.30;;;3.77;;
19339;SDS011;9804;52.350;6.684;2024-01-10T08:58:12;10.00;;;3.90;;
19339;SDS011;9804;52.350;6.684;2024-01-10T09:00:38;7.67;;;3.70;;
19339;SDS011;9804;52.350;6.684;2024-01-10T09:03:03;8.77;;;4.10;;
19339;SDS011;9804;52.350;6.684;2024-01-10T09:05:29;11.77;;;4.17;;
19339;SDS011;9804;52.350;6.684;2024-01-10T09:07:55;12.37;;;4.40;;
19339;SDS011;9804;52.350;6.684;2024-01-10T09:10:20;7.00;;;3.73;;
19339;SDS011;9804;52.350;6.684;2024-01-10T09:12:46;9.47;;;4.60;;
19339;SDS011;9804;52.350;6.684;2024-01-10T09:15:12;9.40;;;3.93;;
19339;SDS011;9804;52.350;6.684;2024-01-10T09:17:39;15.00;;;4.47;;
19339;SDS011;9804;52.350;6.684;2024-01-10T09:20:08;11.53;;;5.00;;
19339;SDS011;9804;52.350;6.684;2024-01-10T09:22:35;10.53;;;4.30;;
19339;SDS011;9804;52.350;6.684;2024-01-10T09:25:00;10.63;;;4.53;;
19339;SDS011;9804;52.350;6.684;2024-01-10T09:27:38;9.77;;;4.03;;
19339;SDS011;9804;52.350;6.684;2024-01-10T09:30:09;9.20;;;3.93;;
19339;SDS011;9804;52.350;6.684;2024-01-10T09:32:35;9.93;;;4.30;;
19339;SDS011;9804;52.350;6.684;2024-01-10T09:35:01;9.43;;;4.23;;
19339;SDS011;9804;52.350;6.684;2024-01-10T09:37:26;9.07;;;4.20;;
19339;SDS011;9804;52.350;6.684;2024-01-10T09:39:52;9.63;;;4.97;;
19339;SDS011;9804;52.350;6.684;2024-01-10T09:42:18;9.27;;;4.20;;
19339;SDS011;9804;52.350;6.684;2024-01-10T09:44:44;10.90;;;4.40;;
19339;SDS011;9804;52.350;6.684;2024-01-10T09:47:11;9.97;;;4.30;;
19339;SDS011;9804;52.350;6.684;2024-01-10T09:49:38;8.83;;;4.03;;
19339;SDS011;9804;52.350;6.684;2024-01-10T09:52:04;8.23;;;4.40;;
19339;SDS011;9804;52.350;6.684;2024-01-10T09:54:34;8.50;;;4.33;;
19339;SDS011;9804;52.350;6.684;2024-01-10T09:57:03;8.73;;;4.47;;
19339;SDS011;9804;52.350;6.684;2024-01-10T09:59:29;8.83;;;3.87;;
19339;SDS011;9804;52.350;6.684;2024-01-10T10:01:55;10.70;;;4.40;;
19339;SDS011;9804;52.350;6.684;2024-01-10T10:04:22;10.13;;;4.67;;
19339;SDS011;9804;52.350;6.684;2024-01-10T10:07:01;10.07;;;4.60;;
19339;SDS011;9804;52.350;6.684;2024-01-10T10:09:27;7.07;;;3.80;;
19339;SDS011;9804;52.350;6.684;2024-01-10T10:11:54;13.70;;;4.97;;
19339;SDS011;9804;52.350;6.684;2024-01-10T10:14:20;10.53;;;4.50;;
19339;SDS011;9804;52.350;6.684;2024-01-10T10:16:47;10.00;;;3.93;;
19339;SDS011;9804;52.350;6.684;2024-01-10T10:19:13;11.20;;;5.10;;
19339;SDS011;9804;52.350;6.684;2024-01-10T10:21:48;9.20;;;4.63;;
19339;SDS011;9804;52.350;6.684;2024-01-10T10:24:13;13.90;;;4.97;;
19339;SDS011;9804;52.350;6.684;2024-01-10T10:26:39;11.60;;;5.33;;
19339;SDS011;9804;52.350;6.684;2024-01-10T10:29:06;10.10;;;4.63;;
19339;SDS011;9804;52.350;6.684;2024-01-10T10:31:31;10.30;;;4.90;;
19339;SDS011;9804;52.350;6.684;2024-01-10T10:33:57;10.03;;;4.30;;
19339;SDS011;9804;52.350;6.684;2024-01-10T10:36:25;10.13;;;4.73;;
19339;SDS011;9804;52.350;6.684;2024-01-10T10:38:50;9.53;;;4.60;;
19339;SDS011;9804;52.350;6.684;2024-01-10T10:41:16;9.30;;;5.10;;
19339;SDS011;9804;52.350;6.684;2024-01-10T10:43:41;10.40;;;4.33;;
19339;SDS011;9804;52.350;6.684;2024-01-10T10:46:08;9.10;;;4.67;;
19339;SDS011;9804;52.350;6.684;2024-01-10T10:48:35;10.47;;;4.67;;
19339;SDS011;9804;52.350;6.684;2024-01-10T10:53:37;13.93;;;5.13;;
19339;SDS011;9804;52.350;6.684;2024-01-10T10:56:05;11.23;;;4.87;;
19339;SDS011;9804;52.350;6.684;2024-01-10T10:58:36;11.07;;;4.57;;
19339;SDS011;9804;52.350;6.684;2024-01-10T11:01:04;8.87;;;4.73;;
19339;SDS011;9804;52.350;6.684;2024-01-10T11:03:33;12.23;;;5.20;;
19339;SDS011;9804;52.350;6.684;2024-01-10T11:06:01;10.83;;;4.80;;
19339;SDS011;9804;52.350;6.684;2024-01-10T11:08:27;9.20;;;4.47;;
19339;SDS011;9804;52.350;6.684;2024-01-10T11:10:54;8.63;;;4.70;;
19339;SDS011;9804;52.350;6.684;2024-01-10T11:13:32;10.70;;;5.03;;
19339;SDS011;9804;52.350;6.684;2024-01-10T11:16:59;9.47;;;4.27;;
19339;SDS011;9804;52.350;6.684;2024-01-10T11:25:08;8.77;;;3.93;;
19339;SDS011;9804;52.350;6.684;2024-01-10T11:27:36;10.53;;;3.93;;
19339;SDS011;9804;52.350;6.684;2024-01-10T11:30:01;11.53;;;4.67;;
19339;SDS011;9804;52.350;6.684;2024-01-10T11:32:30;10.77;;;4.50;;
19339;SDS011;9804;52.350;6.684;2024-01-10T11:34:57;10.77;;;4.60;;
19339;SDS011;9804;52.350;6.684;2024-01-10T11:37:24;8.50;;;4.90;;
19339;SDS011;9804;52.350;6.684;2024-01-10T11:39:54;8.20;;;5.00;;
19339;SDS011;9804;52.350;6.684;2024-01-10T11:42:23;9.30;;;4.90;;
19339;SDS011;9804;52.350;6.684;2024-01-10T11:45:05;9.93;;;4.57;;
19339;SDS011;9804;52.350;6.684;2024-01-10T11:47:31;9.73;;;4.57;;
19339;SDS011;9804;52.350;6.684;2024-01-10T11:49:57;8.60;;;4.40;;
19339;SDS011;9804;52.350;6.684;2024-01-10T11:52:23;9.30;;;4.43;;
19339;SDS011;9804;52.350;6.684;2024-01-10T11:54:57;7.13;;;4.23;;
19339;SDS011;9804;52.350;6.684;2024-01-10T11:57:23;10.73;;;4.87;;
19339;SDS011;9804;52.350;6.684;2024-01-10T11:59:52;11.77;;;5.00;;
19339;SDS011;9804;52.350;6.684;2024-01-10T12:02:19;10.17;;;4.50;;
19339;SDS011;9804;52.350;6.684;2024-01-10T12:04:45;9.80;;;4.50;;
19339;SDS011;9804;52.350;6.684;2024-01-10T12:07:12;9.20;;;4.40;;
19339;SDS011;9804;52.350;6.684;2024-01-10T12:09:38;10.67;;;4.60;;
19339;SDS011;9804;52.350;6.684;2024-01-10T12:12:04;10.90;;;4.80;;
19339;SDS011;9804;52.350;6.684;2024-01-10T12:14:31;10.53;;;4.60;;
19339;SDS011;9804;52.350;6.684;2024-01-10T12:16:57;9.57;;;4.20;;
19339;SDS011;9804;52.350;6.684;2024-01-10T12:19:24;11.10;;;4.93;;
19339;SDS011;9804;52.350;6.684;2024-01-10T12:21:49;12.43;;;4.57;;
19339;SDS011;9804;52.350;6.684;2024-01-10T12:24:15;9.40;;;4.20;;
19339;SDS011;9804;52.350;6.684;2024-01-10T12:26:45;9.00;;;4.73;;
19339;SDS011;9804;52.350;6.684;2024-01-10T12:29:11;10.23;;;4.70;;
19339;SDS011;9804;52.350;6.684;2024-01-10T12:31:36;8.73;;;4.77;;
19339;SDS011;9804;52.350;6.684;2024-01-10T12:34:02;10.33;;;4.70;;
19339;SDS011;9804;52.350;6.684;2024-01-10T12:36:28;10.53;;;4.87;;
19339;SDS011;9804;52.350;6.684;2024-01-10T12:38:53;8.73;;;4.50;;
19339;SDS011;9804;52.350;6.684;2024-01-10T12:41:19;8.80;;;4.67;;
19339;SDS011;9804;52.350;6.684;2024-01-10T12:43:54;9.30;;;3.77;;
19339;SDS011;9804;52.350;6.684;2024-01-10T12:46:20;9.13;;;4.57;;
19339;SDS011;9804;52.350;6.684;2024-01-10T12:48:58;9.80;;;5.07;;
19339;SDS011;9804;52.350;6.684;2024-01-10T12:51:25;8.83;;;4.83;;
19339;SDS011;9804;52.350;6.684;2024-01-10T12:53:52;11.70;;;4.63;;
19339;SDS011;9804;52.350;6.684;2024-01-10T12:56:18;9.43;;;4.80;;
19339;SDS011;9804;52.350;6.684;2024-01-10T12:58:43;11.43;;;5.00;;
19339;SDS011;9804;52.350;6.684;2024-01-10T13:01:09;9.97;;;4.63;;
19339;SDS011;9804;52.350;6.684;2024-01-10T13:03:34;10.77;;;5.30;;
19339;SDS011;9804;52.350;6.684;2024-01-10T13:06:00;9.53;;;4.27;;
19339;SDS011;9804;52.350;6.684;2024-01-10T13:08:26;9.07;;;4.97;;
19339;SDS011;9804;52.350;6.684;2024-01-10T13:10:52;9.77;;;4.53;;
19339;SDS011;9804;52.350;6.684;2024-01-10T13:13:18;8.80;;;4.30;;
19339;SDS011;9804;52.350;6.684;2024-01-10T13:15:46;10.33;;;5.17;;
19339;SDS011;9804;52.350;6.684;2024-01-10T13:18:12;9.90;;;5.03;;
19339;SDS011;9804;52.350;6.684;2024-01-10T13:20:39;11.97;;;5.47;;
19339;SDS011;9804;52.350;6.684;2024-01-10T13:23:05;11.93;;;5.20;;
19339;SDS011;9804;52.350;6.684;2024-01-10T13:25:30;9.50;;;4.67;;
19339;SDS011;9804;52.350;6.684;2024-01-10T13:27:56;10.23;;;4.93;;
19339;SDS011;9804;52.350;6.684;2024-01-10T13:30:22;9.17;;;5.00;;
19339;SDS011;9804;52.350;6.684;2024-01-10T13:32:48;9.93;;;4.93;;
19339;SDS011;9804;52.350;6.684;2024-01-10T13:35:13;9.97;;;4.83;;
19339;SDS011;9804;52.350;6.684;2024-01-10T13:37:39;9.93;;;5.10;;
19339;SDS011;9804;52.350;6.684;2024-01-10T13:40:09;11.00;;;4.47;;
19339;SDS011;9804;52.350;6.684;2024-01-10T13:42:37;10.50;;;4.70;;
19339;SDS011;9804;52.350;6.684;2024-01-10T13:45:06;8.77;;;5.10;;
19339;SDS011;9804;52.350;6.684;2024-01-10T13:47:38;10.83;;;4.73;;
19339;SDS011;9804;52.350;6.684;2024-01-10T13:50:07;8.90;;;4.80;;
19339;SDS011;9804;52.350;6.684;2024-01-10T13:52:33;8.33;;;4.60;;
19339;SDS011;9804;52.350;6.684;2024-01-10T13:55:00;9.53;;;4.50;;
19339;SDS011;9804;52.350;6.684;2024-01-10T13:57:25;11.13;;;5.10;;
19339;SDS011;9804;52.350;6.684;2024-01-10T13:59:51;8.50;;;4.70;;
19339;SDS011;9804;52.350;6.684;2024-01-10T14:02:16;10.10;;;4.73;;
19339;SDS011;9804;52.350;6.684;2024-01-10T14:04:44;8.90;;;4.30;;
19339;SDS011;9804;52.350;6.684;2024-01-10T14:07:10;10.03;;;5.00;;
19339;SDS011;9804;52.350;6.684;2024-01-10T14:09:35;10.77;;;4.57;;
19339;SDS011;9804;52.350;6.684;2024-01-10T14:12:01;9.70;;;4.73;;
19339;SDS011;9804;52.350;6.684;2024-01-10T14:14:26;9.30;;;4.67;;
19339;SDS011;9804;52.350;6.684;2024-01-10T14:16:52;11.10;;;4.23;;
19339;SDS011;9804;52.350;6.684;2024-01-10T14:19:17;9.97;;;4.70;;
19339;SDS011;9804;52.350;6.684;2024-01-10T14:21:43;8.83;;;4.20;;
19339;SDS011;9804;52.350;6.684;2024-01-10T14:24:09;9.60;;;4.77;;
19339;SDS011;9804;52.350;6.684;2024-01-10T14:26:34;12.30;;;5.07;;
19339;SDS011;9804;52.350;6.684;2024-01-10T14:29:00;9.40;;;4.53;;
19339;SDS011;9804;52.350;6.684;2024-01-10T14:31:26;9.83;;;4.70;;
19339;SDS011;9804;52.350;6.684;2024-01-10T14:33:51;14.67;;;5.10;;
19339;SDS011;9804;52.350;6.684;2024-01-10T14:36:17;10.20;;;4.60;;
19339;SDS011;9804;52.350;6.684;2024-01-10T14:38:42;11.33;;;4.67;;
19339;SDS011;9804;52.350;6.684;2024-01-10T14:41:08;10.03;;;4.37;;
19339;SDS011;9804;52.350;6.684;2024-01-10T14:43:35;9.60;;;4.37;;
19339;SDS011;9804;52.350;6.684;2024-01-10T14:46:01;11.07;;;5.33;;
19339;SDS011;9804;52.350;6.684;2024-01-10T14:48:27;9.03;;;4.67;;
19339;SDS011;9804;52.350;6.684;2024-01-10T14:50:53;10.30;;;4.63;;
19339;SDS011;9804;52.350;6.684;2024-01-10T14:53:18;10.80;;;4.73;;
19339;SDS011;9804;52.350;6.684;2024-01-10T14:55:44;8.70;;;4.33;;
19339;SDS011;9804;52.350;6.684;2024-01-10T14:58:09;10.40;;;4.43;;
19339;SDS011;9804;52.350;6.684;2024-01-10T15:00:35;9.80;;;4.50;;